Time;durP1;ratioP1;P1;durP2;ratioP2;P2;SDS_P1;SDS_P2;PMS_P1;PMS_P2;Temp;Humidity;BMP_temperature;BMP_pressure;BME280_temperature;BME280_humidity;BME280_pressure;Samples;Min_cycle;Max_cycle;Signal;HPM_P1;HPM_P2
2024/01/21 00:00:48;;;;;;;1999.90;999.90;;;0.10;99.90;;;;;;5074353;28;20052;-74
2024/01/21 00:03:14;;;;;;;1999.90;999.90;;;0.30;99.90;;;;;;5074702;28;20035;-74
2024/01/21 00:05:40;;;;;;;1999.90;999.90;;;0.30;99.90;;;;;;5074317;28;20045;-74
2024/01/21 00:08:06;;;;;;;1999.90;999.90;;;0.40;99.90;;;;;;5074694;28;20067;-74
2024/01/21 00:10:31;;;;;;;1999.90;999.90;;;0.50;99.90;;;;;;5074697;28;20032;-74
2024/01/21 00:12:57;;;;;;;1999.90;999.90;;;0.60;99.90;;;;;;5074313;28;20088;-73
2024/01/21 00:15:22;;;;;;;1999.90;999.90;;;0.70;99.90;;;;;;5074643;28;20016;-70
2024/01/21 00:17:48;;;;;;;1999.90;999.90;;;0.70;99.90;;;;;;5073990;28;20035;-74
2024/01/21 00:20:14;;;;;;;1999.90;999.90;;;0.80;99.90;;;;;;5074246;28;20023;-74
2024/01/21 00:22:40;;;;;;;1999.90;999.90;;;0.80;99.90;;;;;;5074372;28;20028;-70
2024/01/21 00:25:09;;;;;;;1999.90;999.90;;;0.80;99.90;;;;;;5074528;28;20036;-70
2024/01/21 00:27:35;;;;;;;1999.90;999.90;;;0.90;99.90;;;;;;5074132;28;20177;-74
2024/01/21 00:30:02;;;;;;;1999.90;999.90;;;0.80;99.90;;;;;;5073977;28;20111;-74
2024/01/21 00:32:27;;;;;;;1999.90;999.90;;;0.90;99.90;;;;;;5073976;28;20379;-74
2024/01/21 00:34:53;;;;;;;1999.90;999.90;;;0.80;99.90;;;;;;5073587;28;20028;-70
2024/01/21 00:37:19;;;;;;;1999.90;999.90;;;0.80;99.90;;;;;;5074069;28;20048;-70
2024/01/21 00:39:45;;;;;;;1999.90;999.90;;;0.80;99.90;;;;;;5073159;28;20081;-70
2024/01/21 00:42:10;;;;;;;1999.90;999.90;;;0.80;99.90;;;;;;5074060;28;20122;-75
2024/01/21 00:44:37;;;;;;;1999.90;999.90;;;0.80;99.90;;;;;;5073898;28;20203;-70
2024/01/21 00:47:03;;;;;;;1999.90;999.90;;;0.80;99.90;;;;;;5055862;28;20086;-70
2024/01/21 00:49:29;;;;;;;1999.90;999.90;;;0.80;99.90;;;;;;5073448;28;20408;-70
2024/01/21 00:51:58;;;;;;;1999.90;999.90;;;0.80;99.90;;;;;;5080762;28;20063;-74
2024/01/21 00:54:24;;;;;;;1999.90;999.90;;;0.90;99.90;;;;;;5078065;28;20429;-75
2024/01/21 00:56:50;;;;;;;1999.90;999.90;;;0.80;99.90;;;;;;5073458;28;20027;-70
2024/01/21 00:59:15;;;;;;;1999.90;999.90;;;0.80;99.90;;;;;;5073123;28;20021;-74
2024/01/21 01:01:41;;;;;;;1999.90;999.90;;;0.80;99.90;;;;;;5072317;28;20080;-74
2024/01/21 01:04:07;;;;;;;1999.90;999.90;;;0.80;99.90;;;;;;5055449;28;20418;-70
2024/01/21 01:06:33;;;;;;;1999.90;999.90;;;0.70;99.90;;;;;;5073274;28;20133;-70
2024/01/21 01:08:59;;;;;;;1999.90;999.90;;;0.70;99.90;;;;;;5073233;28;20032;-70
2024/01/21 01:11:25;;;;;;;1999.90;999.90;;;0.70;99.90;;;;;;5073728;28;20145;-74
2024/01/21 01:13:51;;;;;;;1999.90;999.90;;;0.70;99.90;;;;;;5073152;28;20078;-70
2024/01/21 01:16:17;;;;;;;1999.90;999.90;;;0.80;99.90;;;;;;5073372;28;20020;-70
2024/01/21 01:18:43;;;;;;;1999.90;999.90;;;0.80;99.90;;;;;;5073073;28;20039;-75
2024/01/21 01:21:12;;;;;;;1999.90;999.90;;;0.80;99.90;;;;;;5073172;28;20020;-70
2024/01/21 01:23:38;;;;;;;1999.90;999.90;;;0.80;99.90;;;;;;5073265;28;20498;-70
2024/01/21 01:26:04;;;;;;;1999.90;999.90;;;0.80;99.90;;;;;;5073377;28;20028;-70
2024/01/21 01:28:31;;;;;;;1999.90;999.90;;;0.70;99.90;;;;;;5072860;28;20032;-75
2024/01/21 01:30:57;;;;;;;1999.90;999.90;;;0.70;99.90;;;;;;5073103;28;20031;-73
2024/01/21 01:33:24;;;;;;;1999.90;999.90;;;0.70;99.90;;;;;;5072679;28;20394;-74
2024/01/21 01:35:49;;;;;;;1999.90;999.90;;;0.70;99.90;;;;;;5072931;28;20074;-74
2024/01/21 01:38:15;;;;;;;1999.90;999.90;;;0.70;99.90;;;;;;5073076;28;20491;-74
2024/01/21 01:40:41;;;;;;;1999.90;999.90;;;0.70;99.90;;;;;;5072925;28;20025;-70
2024/01/21 01:43:06;;;;;;;1999.90;999.90;;;0.80;99.90;;;;;;5073331;28;20530;-70
2024/01/21 01:45:32;;;;;;;1999.90;999.90;;;0.80;99.90;;;;;;5072575;28;20029;-75
2024/01/21 01:47:58;;;;;;;1999.90;999.90;;;0.80;99.90;;;;;;5073075;28;20108;-76
2024/01/21 01:50:25;;;;;;;1999.90;999.90;;;0.90;99.90;;;;;;5073225;28;20028;-70
2024/01/21 01:52:51;;;;;;;1999.90;999.90;;;0.90;99.90;;;;;;5084260;28;20024;-70
2024/01/21 01:55:18;;;;;;;1999.90;999.90;;;1.00;99.90;;;;;;5072839;28;20020;-70
2024/01/21 01:57:47;;;;;;;1999.90;999.90;;;1.00;99.90;;;;;;5072811;28;20033;-70
2024/01/21 02:00:14;;;;;;;1999.90;999.90;;;1.10;99.90;;;;;;5072583;28;20024;-74
2024/01/21 02:02:41;;;;;;;1999.90;999.90;;;1.20;99.90;;;;;;5072390;28;20028;-70
2024/01/21 02:05:07;;;;;;;1999.90;999.90;;;1.20;99.90;;;;;;5072539;28;20457;-70
2024/01/21 02:07:33;;;;;;;1999.90;999.90;;;1.20;99.90;;;;;;5054697;28;20043;-70
2024/01/21 02:10:03;;;;;;;1999.90;999.90;;;1.30;99.90;;;;;;5054475;28;20029;-74
2024/01/21 02:12:29;;;;;;;1999.90;999.90;;;1.30;99.90;;;;;;5074606;28;20017;-70
2024/01/21 02:14:55;;;;;;;1999.90;999.90;;;1.30;99.90;;;;;;5076747;28;20021;-74
2024/01/21 02:17:20;;;;;;;1999.90;999.90;;;1.30;99.90;;;;;;5077038;28;20033;-70
2024/01/21 02:19:46;;;;;;;1999.90;999.90;;;1.40;99.90;;;;;;5058896;28;20431;-70
2024/01/21 02:22:12;;;;;;;1999.90;999.90;;;1.40;99.90;;;;;;5076674;28;20078;-70
2024/01/21 02:24:38;;;;;;;1999.90;999.90;;;1.40;99.90;;;;;;5076701;28;20021;-74
2024/01/21 02:27:04;;;;;;;1999.90;999.90;;;1.40;99.90;;;;;;5076574;28;20094;-75
2024/01/21 02:29:30;;;;;;;1999.90;999.90;;;1.40;99.90;;;;;;5076477;28;20421;-70
2024/01/21 02:31:57;;;;;;;1999.90;999.90;;;1.40;99.90;;;;;;5076446;28;20028;-70
2024/01/21 02:34:23;;;;;;;1999.90;999.90;;;1.40;99.90;;;;;;5076185;28;20028;-70
2024/01/21 02:36:49;;;;;;;1999.90;999.90;;;1.40;99.90;;;;;;5076122;28;20103;-74
2024/01/21 02:39:15;;;;;;;1999.90;999.90;;;1.50;99.90;;;;;;5076367;28;20024;-74
2024/01/21 02:41:40;;;;;;;1999.90;999.90;;;1.50;99.90;;;;;;5076201;28;20032;-74
2024/01/21 02:44:06;;;;;;;1999.90;999.90;;;1.50;99.90;;;;;;5076349;28;20024;-74
2024/01/21 02:46:32;;;;;;;1999.90;999.90;;;1.50;99.90;;;;;;5075859;28;20028;-74
2024/01/21 02:48:57;;;;;;;1999.90;999.90;;;1.50;99.90;;;;;;5076090;28;20036;-74
2024/01/21 02:51:23;;;;;;;1999.90;999.90;;;1.50;99.90;;;;;;5079307;28;20572;-75
2024/01/21 02:53:49;;;;;;;1999.90;999.90;;;1.50;99.90;;;;;;5084876;28;20025;-70
2024/01/21 02:56:24;;;;;;;1999.90;999.90;;;1.40;99.90;;;;;;5076054;28;20021;-70
2024/01/21 02:58:51;;;;;;;1999.90;999.90;;;1.50;99.90;;;;;;5058198;28;20108;-70
2024/01/21 03:01:17;;;;;;;1999.90;999.90;;;1.50;99.90;;;;;;5075559;28;20031;-75
2024/01/21 03:03:43;;;;;;;1999.90;999.90;;;1.40;99.90;;;;;;5075668;28;20048;-75
2024/01/21 03:06:09;;;;;;;1999.90;999.90;;;1.40;99.90;;;;;;5074454;28;20087;-75
2024/01/21 03:08:34;;;;;;;1999.90;999.90;;;1.40;99.90;;;;;;5074380;28;20023;-70
2024/01/21 03:11:00;;;;;;;1999.90;999.90;;;1.40;99.90;;;;;;5074569;28;20020;-74
2024/01/21 03:13:26;;;;;;;1999.90;999.90;;;1.40;99.90;;;;;;5073282;28;20021;-75
2024/01/21 03:15:52;;;;;;;1999.90;999.90;;;1.40;99.90;;;;;;5074173;28;20020;-70
2024/01/21 03:18:18;;;;;;;1999.90;999.90;;;1.40;99.90;;;;;;5074609;28;20101;-75
2024/01/21 03:20:43;;;;;;;1999.90;999.90;;;1.50;99.90;;;;;;5074555;28;20498;-70
2024/01/21 03:23:09;;;;;;;1999.90;999.90;;;1.50;99.90;;;;;;5074145;28;20391;-70
2024/01/21 03:25:34;;;;;;;1999.90;999.90;;;1.50;99.90;;;;;;5074102;28;20028;-70
2024/01/21 03:28:00;;;;;;;1999.90;999.90;;;1.60;99.90;;;;;;5074176;28;20067;-70
2024/01/21 03:30:26;;;;;;;1999.90;999.90;;;1.70;99.90;;;;;;5074167;28;20441;-70
2024/01/21 03:32:52;;;;;;;1999.90;999.90;;;1.80;99.90;;;;;;5073989;28;20021;-72
2024/01/21 03:35:18;;;;;;;1999.90;999.90;;;1.80;99.90;;;;;;5074238;28;20478;-74
2024/01/21 03:37:43;;;;;;;1999.90;999.90;;;1.80;99.90;;;;;;5073931;28;20138;-70
2024/01/21 03:40:09;;;;;;;1999.90;999.90;;;1.90;99.90;;;;;;5074086;28;20182;-70
2024/01/21 03:42:35;;;;;;;1999.90;999.90;;;1.90;99.90;;;;;;5073956;28;20032;-73
2024/01/21 03:45:00;;;;;;;1999.90;999.90;;;2.00;99.90;;;;;;5074167;28;20032;-74
2024/01/21 03:47:26;;;;;;;1999.90;999.90;;;2.00;99.90;;;;;;5073888;28;20024;-71
2024/01/21 03:49:52;;;;;;;1999.90;999.90;;;2.10;99.90;;;;;;5055821;28;20101;-74
2024/01/21 03:52:18;;;;;;;1999.90;999.90;;;2.00;99.90;;;;;;5083340;28;20028;-70
2024/01/21 03:54:44;;;;;;;1999.90;999.90;;;2.00;99.90;;;;;;5076174;28;20032;-74
2024/01/21 03:57:10;;;;;;;1999.90;999.90;;;2.00;99.90;;;;;;5073825;28;20013;-75
2024/01/21 03:59:36;;;;;;;1999.90;999.90;;;2.00;99.90;;;;;;5072659;28;20475;-70
2024/01/21 04:02:01;;;;;;;1999.90;999.90;;;2.00;99.90;;;;;;5073349;28;20056;-70
2024/01/21 04:04:27;;;;;;;1999.90;999.90;;;2.00;99.90;;;;;;5030784;28;1224600;-74
2024/01/21 04:06:53;;;;;;;1999.90;999.90;;;2.00;99.90;;;;;;5074554;28;20024;-74
2024/01/21 04:09:23;;;;;;;1999.90;999.90;;;2.10;99.90;;;;;;5075034;28;20391;-70
2024/01/21 04:11:51;;;;;;;1999.90;999.90;;;2.00;99.90;;;;;;5074643;28;20146;-70
2024/01/21 04:14:17;;;;;;;1999.90;999.90;;;2.10;99.90;;;;;;5074409;28;20032;-70
2024/01/21 04:16:43;;;;;;;1999.90;999.90;;;2.10;99.90;;;;;;5074427;28;20372;-70
2024/01/21 04:19:09;;;;;;;1999.90;999.90;;;2.10;99.90;;;;;;5074375;28;20498;-70
2024/01/21 04:21:35;;;;;;;1999.90;999.90;;;2.10;99.90;;;;;;5074192;28;20017;-75
2024/01/21 04:24:02;;;;;;;1999.90;999.90;;;2.20;99.90;;;;;;5074550;28;20490;-74
2024/01/21 04:26:28;;;;;;;1999.90;999.90;;;2.20;99.90;;;;;;5073920;28;20086;-75
2024/01/21 04:28:54;;;;;;;1999.90;999.90;;;2.10;99.90;;;;;;5074330;28;20031;-74
2024/01/21 04:31:20;;;;;;;1999.90;999.90;;;2.20;99.90;;;;;;5074287;28;20390;-70
2024/01/21 04:33:45;;;;;;;1999.90;999.90;;;2.20;99.90;;;;;;5073797;28;20744;-74
2024/01/21 04:36:18;;;;;;;1999.90;999.90;;;2.30;99.90;;;;;;5073442;28;20027;-74
2024/01/21 04:38:45;;;;;;;1999.90;999.90;;;2.30;99.90;;;;;;5073935;28;20439;-74
2024/01/21 04:41:12;;;;;;;1999.90;999.90;;;2.40;99.90;;;;;;5073896;28;20028;-70
2024/01/21 04:43:38;;;;;;;1999.90;999.90;;;2.40;99.90;;;;;;5073684;28;20055;-73
2024/01/21 04:46:04;;;;;;;1999.90;999.90;;;2.40;99.90;;;;;;5073806;28;20024;-70
2024/01/21 04:48:29;;;;;;;1999.90;999.90;;;2.40;99.90;;;;;;5073649;28;20023;-70
2024/01/21 04:50:55;;;;;;;1999.90;999.90;;;2.40;99.90;;;;;;5076432;28;20021;-70
2024/01/21 04:53:21;;;;;;;1999.90;999.90;;;2.40;99.90;;;;;;5083427;28;20484;-69
2024/01/21 04:55:46;;;;;;;1999.90;999.90;;;2.30;99.90;;;;;;5073842;28;20036;-74
2024/01/21 04:58:12;;;;;;;1999.90;999.90;;;2.20;99.90;;;;;;5073710;28;20021;-70
2024/01/21 05:00:37;;;;;;;1999.90;999.90;;;2.20;99.90;;;;;;5073225;28;20100;-70
2024/01/21 05:03:03;;;;;;;1999.90;999.90;;;2.20;99.90;;;;;;5073216;28;20021;-73
2024/01/21 05:05:29;;;;;;;1999.90;999.90;;;2.20;99.90;;;;;;5073310;28;20091;-69
2024/01/21 05:07:54;;;;;;;1999.90;999.90;;;2.20;99.90;;;;;;5073569;28;20024;-70
2024/01/21 05:10:20;;;;;;;1999.90;999.90;;;2.20;99.90;;;;;;5073605;28;20062;-70
2024/01/21 05:12:46;;;;;;;1999.90;999.90;;;2.20;99.90;;;;;;5080808;28;20429;-69
2024/01/21 05:15:11;;;;;;;1999.90;999.90;;;2.20;99.90;;;;;;5078003;28;20029;-73
2024/01/21 05:17:37;;;;;;;1999.90;999.90;;;2.20;99.90;;;;;;5073124;28;20138;-70
2024/01/21 05:20:03;;;;;;;1999.90;999.90;;;2.30;99.90;;;;;;5073571;28;20024;-73
2024/01/21 05:22:29;;;;;;;1999.90;999.90;;;2.30;99.90;;;;;;5073249;28;20016;-73
2024/01/21 05:24:55;;;;;;;1999.90;999.90;;;2.30;99.90;;;;;;5071470;28;20060;-70
2024/01/21 05:27:21;;;;;;;1999.90;999.90;;;2.40;99.90;;;;;;5072858;28;20060;-73
2024/01/21 05:29:47;;;;;;;1999.90;999.90;;;2.40;99.90;;;;;;5071948;28;20078;-70
2024/01/21 05:32:13;;;;;;;1999.90;999.90;;;2.50;99.90;;;;;;5073016;28;20024;-70
2024/01/21 05:34:38;;;;;;;1999.90;999.90;;;2.40;99.90;;;;;;5072869;28;20033;-70
2024/01/21 05:37:05;;;;;;;1999.90;999.90;;;2.50;99.90;;;;;;5072999;28;20440;-70
2024/01/21 05:39:31;;;;;;;1999.90;999.90;;;2.50;99.90;;;;;;5072839;28;20029;-72
2024/01/21 05:42:01;;;;;;;1999.90;999.90;;;2.60;99.90;;;;;;5073049;28;20024;-72
2024/01/21 05:44:27;;;;;;;1999.90;999.90;;;2.60;99.90;;;;;;5073137;28;20032;-70
2024/01/21 05:46:53;;;;;;;1999.90;999.90;;;2.60;99.90;;;;;;5073030;28;20031;-69
2024/01/21 05:49:18;;;;;;;1999.90;999.90;;;2.70;99.90;;;;;;5073086;28;20024;-69
2024/01/21 05:51:44;;;;;;;1999.90;999.90;;;2.70;99.90;;;;;;5077426;28;20031;-73
2024/01/21 05:54:10;;;;;;;1999.90;999.90;;;2.70;99.90;;;;;;5080329;28;20479;-70
2024/01/21 05:56:36;;;;;;;1999.90;999.90;;;2.70;99.90;;;;;;5072851;28;20028;-74
2024/01/21 05:59:02;;;;;;;1999.90;999.90;;;2.70;99.90;;;;;;5072788;28;20031;-70
2024/01/21 06:01:28;;;;;;;1999.90;999.90;;;2.70;99.90;;;;;;5072476;28;20468;-72
2024/01/21 06:03:53;;;;;;;1999.90;999.90;;;2.70;99.90;;;;;;5072494;28;20020;-73
2024/01/21 06:06:19;;;;;;;1999.90;999.90;;;2.80;99.90;;;;;;5072718;28;20498;-70
2024/01/21 06:08:45;;;;;;;1999.90;999.90;;;2.80;99.90;;;;;;5072631;28;20021;-70
2024/01/21 06:11:10;;;;;;;1999.90;999.90;;;2.70;99.90;;;;;;5072698;28;20070;-70
2024/01/21 06:13:36;;;;;;;1999.90;999.90;;;2.80;99.90;;;;;;5072630;28;20098;-70
2024/01/21 06:16:03;;;;;;;1999.90;999.90;;;2.80;99.90;;;;;;5072636;28;20099;-73
2024/01/21 06:18:29;;;;;;;1999.90;999.90;;;2.70;99.90;;;;;;5072338;28;20032;-73
2024/01/21 06:20:54;;;;;;;1999.90;999.90;;;2.70;99.90;;;;;;5072873;28;20399;-70
2024/01/21 06:23:20;;;;;;;1999.90;999.90;;;2.70;99.90;;;;;;5072584;28;20024;-70
2024/01/21 06:25:46;;;;;;;1999.90;999.90;;;2.70;99.90;;;;;;5054835;28;20439;-70
2024/01/21 06:28:11;;;;;;;1999.90;999.90;;;2.70;99.90;;;;;;5072547;28;20025;-70
2024/01/21 06:30:37;;;;;;;1999.90;999.90;;;2.70;99.90;;;;;;5073611;28;20035;-74
2024/01/21 06:33:03;;;;;;;1999.90;999.90;;;2.70;99.90;;;;;;5082072;28;20025;-73
2024/01/21 06:35:29;;;;;;;1999.90;999.90;;;2.70;99.90;;;;;;5072377;28;20031;-73
2024/01/21 06:37:55;;;;;;;1999.90;999.90;;;2.80;99.90;;;;;;5072634;28;20044;-70
2024/01/21 06:40:21;;;;;;;1999.90;999.90;;;2.80;99.90;;;;;;5072451;28;20020;-70
2024/01/21 06:42:46;;;;;;;1999.90;999.90;;;2.80;99.90;;;;;;5072130;28;20035;-74
2024/01/21 06:45:12;;;;;;;1999.90;999.90;;;2.80;99.90;;;;;;5072221;28;20405;-73
2024/01/21 06:47:39;;;;;;;1999.90;999.90;;;2.80;99.90;;;;;;5054505;28;20103;-74
2024/01/21 06:50:05;;;;;;;1999.90;999.90;;;2.80;99.90;;;;;;5072437;28;20479;-70
2024/01/21 06:52:31;;;;;;;1999.90;999.90;;;2.90;99.90;;;;;;5083103;28;20035;-73
2024/01/21 06:54:56;;;;;;;1999.90;999.90;;;2.90;99.90;;;;;;5073391;28;20032;-75
2024/01/21 06:57:22;;;;;;;1999.90;999.90;;;2.90;99.90;;;;;;5075903;28;20025;-75
2024/01/21 06:59:49;;;;;;;1999.90;999.90;;;2.90;99.90;;;;;;5089014;28;20415;-70
2024/01/21 07:02:15;;;;;;;1999.90;999.90;;;2.90;99.90;;;;;;5075574;28;20509;-74
2024/01/21 07:04:40;;;;;;;1999.90;999.90;;;3.00;99.90;;;;;;5075698;28;20133;-70
2024/01/21 07:07:06;;;;;;;1999.90;999.90;;;3.00;99.90;;;;;;5075898;28;20503;-75
2024/01/21 07:09:32;;;;;;;1999.90;999.90;;;3.00;99.90;;;;;;5075555;28;20151;-74
2024/01/21 07:11:57;;;;;;;1999.90;999.90;;;3.00;99.90;;;;;;5075962;28;20061;-70
2024/01/21 07:14:23;;;;;;;1999.90;999.90;;;3.10;99.90;;;;;;5075641;28;20432;-73
2024/01/21 07:16:49;;;;;;;1999.90;999.90;;;3.10;99.90;;;;;;5075541;28;20020;-70
2024/01/21 07:19:15;;;;;;;1999.90;999.90;;;3.10;99.90;;;;;;5075541;28;20016;-70
2024/01/21 07:21:40;;;;;;;1999.90;999.90;;;3.20;99.90;;;;;;5075452;28;20028;-70
2024/01/21 07:24:06;;;;;;;1999.90;999.90;;;3.20;99.90;;;;;;5075654;28;20066;-74
2024/01/21 07:26:32;;;;;;;1999.90;999.90;;;3.20;99.90;;;;;;5075145;28;20507;-73
2024/01/21 07:28:57;;;;;;;1999.90;999.90;;;3.20;99.90;;;;;;5075398;28;20028;-70
2024/01/21 07:31:24;;;;;;;1999.90;999.90;;;3.30;99.90;;;;;;5075705;28;20090;-70
2024/01/21 07:33:50;;;;;;;1999.90;999.90;;;3.30;99.90;;;;;;5074686;28;20032;-70
2024/01/21 07:36:16;;;;;;;1999.90;999.90;;;3.40;99.90;;;;;;5075429;28;20430;-73
2024/01/21 07:38:41;;;;;;;1999.90;999.90;;;3.50;99.90;;;;;;5075336;28;20044;-73
2024/01/21 07:41:07;;;;;;;1999.90;999.90;;;3.50;99.90;;;;;;5075170;28;20476;-70
2024/01/21 07:43:33;;;;;;;1999.90;999.90;;;3.60;99.90;;;;;;5075064;28;20454;-70
2024/01/21 07:45:59;;;;;;;1999.90;999.90;;;3.60;99.90;;;;;;5075076;28;20530;-73
2024/01/21 07:48:24;;;;;;;1999.90;999.90;;;3.70;99.90;;;;;;5074944;28;20035;-73
2024/01/21 07:50:50;;;;;;;1999.90;999.90;;;3.70;99.90;;;;;;5078075;28;20033;-70
2024/01/21 07:53:19;;;;;;;1999.90;999.90;;;3.70;99.90;;;;;;5084999;28;20052;-70
2024/01/21 07:55:45;;;;;;;1999.90;999.90;;;3.80;99.90;;;;;;5074778;28;20472;-70
2024/01/21 07:58:12;;;;;;;1999.90;999.90;;;3.80;99.90;;;;;;5075216;28;20036;-70
2024/01/21 08:00:38;;;;;;;1999.90;999.90;;;3.90;99.90;;;;;;5062561;28;20025;-73
2024/01/21 08:03:05;;;;;;;1999.90;999.90;;;3.90;99.90;;;;;;5054668;28;20151;-70
2024/01/21 08:05:33;;;;;;;1999.90;999.90;;;4.00;99.90;;;;;;5054316;28;20040;-70
2024/01/21 08:07:58;;;;;;;1999.90;999.90;;;4.10;99.90;;;;;;5054900;28;20032;-70
2024/01/21 08:10:24;;;;;;;1999.90;999.90;;;4.10;99.90;;;;;;5052312;28;20029;-73
2024/01/21 08:12:50;;;;;;;1999.90;999.90;;;4.20;99.90;;;;;;5053381;28;20036;-70
2024/01/21 08:15:16;;;;;;;1999.90;999.90;;;4.20;99.90;;;;;;5054371;28;20106;-74
2024/01/21 08:17:42;;;;;;;1999.90;999.90;;;4.30;99.90;;;;;;5054352;28;20030;-74
2024/01/21 08:20:08;;;;;;;1999.90;999.90;;;4.30;99.90;;;;;;5054280;28;20024;-74
2024/01/21 08:22:34;;;;;;;1999.90;999.90;;;4.40;99.90;;;;;;5054299;28;20040;-75
2024/01/21 08:24:59;;;;;;;1999.90;999.90;;;4.40;99.90;;;;;;5054293;28;20111;-74
2024/01/21 08:27:25;;;;;;;1999.90;999.90;;;4.50;99.90;;;;;;5056310;28;20082;-75
2024/01/21 08:29:51;;;;;;;1999.90;999.90;;;4.50;99.90;;;;;;5074065;28;20035;-75
2024/01/21 08:32:17;;;;;;;1999.90;999.90;;;4.60;99.90;;;;;;5074237;28;20028;-75
2024/01/21 08:34:43;;;;;;;1999.90;999.90;;;4.60;99.90;;;;;;5073362;28;20028;-76
2024/01/21 08:37:09;;;;;;;1999.90;999.90;;;4.70;99.90;;;;;;5074329;28;20032;-70
2024/01/21 08:39:34;;;;;;;1999.90;999.90;;;4.80;99.90;;;;;;5074079;28;20020;-76
2024/01/21 08:42:00;;;;;;;1999.90;999.90;;;4.80;99.90;;;;;;5073884;28;20399;-75
2024/01/21 08:44:25;;;;;;;1999.90;999.90;;;4.80;99.90;;;;;;5073959;28;20021;-75
2024/01/21 08:46:51;;;;;;;1999.90;999.90;;;4.80;99.90;;;;;;5073717;28;20062;-70
2024/01/21 08:49:16;;;;;;;1999.90;999.90;;;4.90;99.90;;;;;;5076925;28;20028;-70
2024/01/21 08:51:42;;;;;;;1999.90;999.90;;;5.00;99.90;;;;;;5083435;28;20498;-70
2024/01/21 08:54:08;;;;;;;1999.90;999.90;;;5.10;99.90;;;;;;5082514;28;20060;-75
2024/01/21 08:56:35;;;;;;;1999.90;999.90;;;5.20;99.90;;;;;;5073445;28;20048;-70
2024/01/21 08:59:01;;;;;;;1999.90;999.90;;;5.20;99.90;;;;;;5073779;28;20029;-70
2024/01/21 09:01:27;;;;;;;1999.90;999.90;;;5.20;99.90;;;;;;5073495;28;20530;-70
2024/01/21 09:03:52;;;;;;;1999.90;999.90;;;5.20;99.90;;;;;;5073025;28;20067;-70
2024/01/21 09:06:19;;;;;;;1999.90;999.90;;;5.20;99.90;;;;;;5073126;28;20033;-70
2024/01/21 09:08:44;;;;;;;1999.90;999.90;;;5.20;99.90;;;;;;5073674;28;20024;-70
2024/01/21 09:11:12;;;;;;;1999.90;999.90;;;5.30;99.90;;;;;;5073338;28;20024;-70
2024/01/21 09:13:38;;;;;;;1999.90;999.90;;;5.30;99.90;;;;;;5073709;28;20012;-70
2024/01/21 09:16:04;;;;;;;1999.90;999.90;;;5.40;99.90;;;;;;5073284;28;20048;-73
2024/01/21 09:18:33;;;;;;;1999.90;999.90;;;5.40;99.90;;;;;;5073072;28;20024;-75
2024/01/21 09:20:58;;;;;;;1999.90;999.90;;;5.50;99.90;;;;;;5073063;28;20024;-70
2024/01/21 09:23:25;;;;;;;1999.90;999.90;;;5.50;99.90;;;;;;5072957;28;20024;-75
2024/01/21 09:25:50;;;;;;;1999.90;999.90;;;5.60;99.90;;;;;;5077915;28;20041;-70
2024/01/21 09:28:16;;;;;;;1999.90;999.90;;;5.60;99.90;;;;;;5088341;28;20055;-75
2024/01/21 09:30:41;;;;;;;1999.90;999.90;;;5.50;99.90;;;;;;5093323;28;20038;-70
2024/01/21 09:33:07;;;;;;;1999.90;999.90;;;5.50;99.90;;;;;;5061004;28;20028;-70
2024/01/21 09:35:33;;;;;;;1999.90;999.90;;;5.50;99.90;;;;;;5072566;28;20513;-70
2024/01/21 09:37:58;;;;;;;1999.90;999.90;;;5.60;99.90;;;;;;5073323;28;20017;-75
2024/01/21 09:40:24;;;;;;;1999.90;999.90;;;5.70;99.90;;;;;;5073029;28;20032;-70
2024/01/21 09:42:50;;;;;;;1999.90;999.90;;;5.80;99.90;;;;;;5072960;28;20394;-70
2024/01/21 09:45:17;;;;;;;1999.90;999.90;;;5.80;99.90;;;;;;5072962;28;20517;-74
2024/01/21 09:47:43;;;;;;;1999.90;999.90;;;5.90;99.90;;;;;;5072693;28;20483;-74
2024/01/21 09:50:10;;;;;;;1999.90;999.90;;;6.00;99.90;;;;;;5072960;28;20035;-70
2024/01/21 09:52:36;;;;;;;1999.90;999.90;;;6.10;99.90;;;;;;5082828;28;20077;-70
2024/01/21 09:55:02;;;;;;;1999.90;999.90;;;6.30;99.90;;;;;;5074782;28;20114;-70
2024/01/21 09:57:28;;;;;;;1999.90;999.90;;;6.40;99.90;;;;;;5072793;28;20017;-74
2024/01/21 09:59:55;;;;;;;1999.90;999.90;;;6.40;99.90;;;;;;5071659;28;20035;-70
2024/01/21 10:02:23;;;;;;;1999.90;999.90;;;6.50;99.90;;;;;;5072776;28;20460;-75
2024/01/21 10:04:49;;;;;;;1999.90;999.90;;;6.60;99.90;;;;;;5072544;28;20048;-75
2024/01/21 10:07:15;;;;;;;1999.90;999.90;;;6.60;99.90;;;;;;5072912;28;20379;-70
2024/01/21 10:09:41;;;;;;;1999.90;999.90;;;6.60;99.90;;;;;;5072645;28;20024;-70
2024/01/21 10:12:08;;;;;;;1999.90;999.90;;;6.60;99.90;;;;;;5072793;28;20078;-70
2024/01/21 10:14:33;;;;;;;1999.90;999.90;;;6.70;99.90;;;;;;5072070;28;20025;-74
2024/01/21 10:17:00;;;;;;;1999.90;999.90;;;6.70;99.90;;;;;;5072902;28;20028;-74
2024/01/21 10:19:31;;;;;;;1999.90;999.90;;;6.70;99.90;;;;;;5072629;28;20422;-74
2024/01/21 10:22:10;;;;;;;1999.90;999.90;;;6.70;99.90;;;;;;5072072;28;20029;-70
2024/01/21 10:24:41;;;;;;;1999.90;999.90;;;6.80;99.90;;;;;;5072707;28;20035;-74
2024/01/21 10:27:07;;;;;;;1999.90;999.90;;;6.80;99.90;;;;;;5072657;28;20441;-70
2024/01/21 10:29:37;;;;;;;1999.90;999.90;;;6.90;99.90;;;;;;5072258;28;20103;-70
2024/01/21 10:32:04;;;;;;;1999.90;999.90;;;6.90;99.90;;;;;;5072738;28;20100;-75
2024/01/21 10:34:30;;;;;;;1999.90;999.90;;;7.00;99.90;;;;;;5075523;28;20039;-70
2024/01/21 10:37:04;;;;;;;1999.90;999.90;;;7.10;99.90;;;;;;5076515;28;20531;-70
2024/01/21 10:39:34;;;;;;;1999.90;999.90;;;7.10;99.90;;;;;;5076165;28;20025;-70
2024/01/21 10:42:00;;;;;;;1999.90;999.90;;;7.20;99.90;;;;;;5076208;28;20138;-70
2024/01/21 10:44:28;;;;;;;1999.90;999.90;;;7.20;99.90;;;;;;5076273;28;20102;-70
2024/01/21 10:46:59;;;;;;;1999.90;999.90;;;7.30;99.90;;;;;;5076183;28;20028;-70
2024/01/21 10:49:25;;;;;;;1999.90;999.90;;;7.30;99.90;;;;;;5076149;28;20059;-70
2024/01/21 10:51:53;;;;;;;1999.90;999.90;;;7.40;99.90;;;;;;5079703;28;20498;-70
2024/01/21 10:54:20;;;;;;;1999.90;999.90;;;7.40;99.90;;;;;;5084074;28;20028;-74
2024/01/21 10:56:48;;;;;;;1999.90;999.90;;;7.60;99.90;;;;;;5075968;28;20016;-70
2024/01/21 10:59:14;;;;;;;1999.90;999.90;;;7.80;99.90;;;;;;5076201;28;20023;-70
2024/01/21 11:01:41;;;;;;;1999.90;999.90;;;7.90;99.90;;;;;;5075406;28;20021;-70
2024/01/21 11:04:11;;;;;;;1999.90;999.90;;;7.90;99.90;;;;;;5075239;28;20057;-74
2024/01/21 11:06:41;;;;;;;1999.90;999.90;;;8.10;99.90;;;;;;5075201;28;20020;-74
2024/01/21 11:09:07;;;;;;;1999.90;999.90;;;8.30;99.90;;;;;;5076145;28;20012;-71
2024/01/21 11:11:46;;;;;;;1999.90;999.90;;;8.80;99.90;;;;;;5075843;28;20031;-70
2024/01/21 11:14:33;;;;;;;1999.90;999.90;;;9.00;99.90;;;;;;5075679;28;20070;-71
2024/01/21 11:17:02;;;;;;;1999.90;999.90;;;9.00;99.90;;;;;;5075965;28;20070;-70
2024/01/21 11:19:38;;;;;;;1999.90;999.90;;;9.10;99.90;;;;;;5075578;28;20052;-70
2024/01/21 11:22:04;;;;;;;1999.90;999.90;;;9.20;99.90;;;;;;5075536;28;20400;-74
2024/01/21 11:24:30;;;;;;;1999.90;999.90;;;9.20;99.90;;;;;;5075719;28;20067;-71
2024/01/21 11:26:58;;;;;;;1999.90;999.90;;;9.20;99.90;;;;;;5075270;28;20024;-70
2024/01/21 11:29:27;;;;;;;1999.90;999.90;;;9.30;99.90;;;;;;5074603;28;20026;-74
2024/01/21 11:31:57;;;;;;;1999.90;999.90;;;9.30;99.90;;;;;;5075461;28;20025;-74
2024/01/21 11:34:24;;;;;;;1999.90;999.90;;;9.30;99.90;;;;;;5075068;28;20025;-74
2024/01/21 11:36:50;;;;;;;1999.90;999.90;;;9.50;99.90;;;;;;5075560;28;20095;-74
2024/01/21 11:39:19;;;;;;;1999.90;999.90;;;9.50;99.90;;;;;;5075498;28;20537;-74
2024/01/21 11:41:45;;;;;;;1999.90;999.90;;;9.60;99.90;;;;;;5075041;28;20024;-75
2024/01/21 11:44:13;;;;;;;1999.90;999.90;;;9.60;99.90;;;;;;5075278;28;20475;-74
2024/01/21 11:46:40;;;;;;;1999.90;999.90;;;9.50;99.90;;;;;;5075072;28;20020;-75
2024/01/21 11:49:08;;;;;;;1999.90;999.90;;;9.50;99.90;;;;;;5075080;28;20029;-74
2024/01/21 11:51:33;;;;;;;1999.90;999.90;;;9.50;99.90;;;;;;5078169;28;20020;-71
2024/01/21 11:53:59;;;;;;;1999.90;999.90;;;9.60;99.90;;;;;;5083870;28;20032;-73
2024/01/21 11:56:25;;;;;;;1999.90;999.90;;;9.60;99.90;;;;;;5075138;28;20095;-75
2024/01/21 11:58:50;;;;;;;1999.90;999.90;;;9.80;99.90;;;;;;5056844;28;20498;-74
2024/01/21 12:01:17;;;;;;;1999.90;999.90;;;9.90;99.90;;;;;;5074591;28;20124;-71
2024/01/21 12:03:42;;;;;;;1999.90;999.90;;;10.00;99.90;;;;;;5074335;28;20029;-74